Meath Environmental Platform

Observations for Trim Market St

Time AQI Temp °C Hum % Pres Pa CO μg/m³ H₂S μg/m³ NO μg/m³ NO₂ μg/m³ O₃ μg/m³ SO₂ μg/m³ PM1 μg/m³ PM2.5 μg/m³ PM10 μg/m³
Thursday 9 July 2026
20:07 1 27.7 48 58,708 0 0.16 0 15.63 4.68 0 0.71 3.05 3.74
20:06 1 27.7 48 58,637 0 1.15 0 16.14 7.56 0 1.43 3.06 3.36
20:03 1 27.7 48 58,824 0 2.83 0 11.26 17.22 0 0 2.55 2.8
19:58 1 27.8 47 59,089 0 3.71 0 13.08 14.26 0 1.43 3.6 3.72
19:53 1 28 47 59,286 0 4.28 0 11.35 16.93 0 0.71 3.09 3.4
19:52 1 28 47 59,362 0 3.51 0 9.86 11.99 0 0.71 3.1 3.41
19:51 1 28 47 59,454 0 5.11 0 9.96 17.21 0 1.43 3.61 3.71
19:50 1 28 47 59,535 0.26 8.8 0 9.76 14.58 0 0.71 3.61 3.71
19:49 1 28 47 59,584 0 7.52 0 11.16 18.61 0 0 2.58 2.84
19:48 1 28.1 47 59,705 0 6.23 0 11.25 10.71 0 1.43 3.1 3.42
19:46 1 28.2 47 60,183 0 5.07 0 10.54 15.54 0 0 2.59 3.7
19:45 1 28.2 47 60,339 0 4.41 0 14.36 21 0 1.43 3.12 3.43
19:44 1 28.2 47 60,430 0 3.74 0 12.76 0.86 0 0 2.6 2.86
19:43 1 28.2 46 60,465 0 6.06 0 17.67 11.79 0 0 3.12 3.43
19:42 1 28.2 46 60,578 0 5.29 0 11.58 17.79 0 0.71 2.61 2.87
19:41 1 28.3 46 60,704 0 5.36 0 14.96 10.51 0 1.43 3.13 3.44
19:40 1 28.3 46 60,874 0 4.8 0 14.17 10.73 0 0.71 2.61 2.87
19:37 1 28.4 46 61,004 0 7.9 0 12.69 29.09 0 0.71 3.15 3.46
19:33 1 28.5 46 61,664 0 4.98 0 11.57 22.99 0 0.71 2.63 2.9
19:30 1 28.6 46 61,994 0 5.91 0 11.98 22.74 0 0 2.65 2.91